sensor_id;sensor_type;location;lat;lon;timestamp;temperature;humidity
65854;DHT22;52627;48.838;2.402;2023-11-18T00:00:08;10.79;86.88
65854;DHT22;52627;48.838;2.402;2023-11-18T00:02:41;10.80;86.90
65854;DHT22;52627;48.838;2.402;2023-11-18T00:05:10;10.82;86.99
65854;DHT22;52627;48.838;2.402;2023-11-18T00:07:38;10.82;86.98
65854;DHT22;52627;48.838;2.402;2023-11-18T00:10:07;10.84;87.00
65854;DHT22;52627;48.838;2.402;2023-11-18T00:12:38;10.85;87.00
65854;DHT22;52627;48.838;2.402;2023-11-18T00:15:09;10.84;86.98
65854;DHT22;52627;48.838;2.402;2023-11-18T00:17:39;10.82;86.90
65854;DHT22;52627;48.838;2.402;2023-11-18T00:20:06;10.81;86.90
65854;DHT22;52627;48.838;2.402;2023-11-18T00:22:39;10.80;86.90
65854;DHT22;52627;48.838;2.402;2023-11-18T00:25:08;10.80;86.94
65854;DHT22;52627;48.838;2.402;2023-11-18T00:27:36;10.80;86.95
65854;DHT22;52627;48.838;2.402;2023-11-18T00:30:04;10.82;87.01
65854;DHT22;52627;48.838;2.402;2023-11-18T00:32:35;10.82;87.00
65854;DHT22;52627;48.838;2.402;2023-11-18T00:35:03;10.83;87.08
65854;DHT22;52627;48.838;2.402;2023-11-18T00:37:32;10.84;87.08
65854;DHT22;52627;48.838;2.402;2023-11-18T00:40:00;10.83;87.00
65854;DHT22;52627;48.838;2.402;2023-11-18T00:42:27;10.81;86.93
65854;DHT22;52627;48.838;2.402;2023-11-18T00:44:55;10.81;86.97
65854;DHT22;52627;48.838;2.402;2023-11-18T00:47:23;10.81;87.00
65854;DHT22;52627;48.838;2.402;2023-11-18T00:49:50;10.81;86.99
65854;DHT22;52627;48.838;2.402;2023-11-18T00:52:19;10.82;87.00
65854;DHT22;52627;48.838;2.402;2023-11-18T00:54:47;10.83;87.00
65854;DHT22;52627;48.838;2.402;2023-11-18T00:57:14;10.82;87.00
65854;DHT22;52627;48.838;2.402;2023-11-18T00:59:42;10.83;87.03
65854;DHT22;52627;48.838;2.402;2023-11-18T01:02:10;10.83;87.07
65854;DHT22;52627;48.838;2.402;2023-11-18T01:04:38;10.83;87.06
65854;DHT22;52627;48.838;2.402;2023-11-18T01:07:06;10.84;87.10
65854;DHT22;52627;48.838;2.402;2023-11-18T01:09:33;10.84;87.11
65854;DHT22;52627;48.838;2.402;2023-11-18T01:12:06;10.85;87.16
65854;DHT22;52627;48.838;2.402;2023-11-18T01:14:37;10.85;87.18
65854;DHT22;52627;48.838;2.402;2023-11-18T01:17:06;10.85;87.16
65854;DHT22;52627;48.838;2.402;2023-11-18T01:19:36;10.85;87.11
65854;DHT22;52627;48.838;2.402;2023-11-18T01:22:03;10.84;87.12
65854;DHT22;52627;48.838;2.402;2023-11-18T01:24:34;10.85;87.20
65854;DHT22;52627;48.838;2.402;2023-11-18T01:27:02;10.85;87.16
65854;DHT22;52627;48.838;2.402;2023-11-18T01:29:30;10.84;87.12
65854;DHT22;52627;48.838;2.402;2023-11-18T01:31:58;10.85;87.19
65854;DHT22;52627;48.838;2.402;2023-11-18T01:34:26;10.84;87.16
65854;DHT22;52627;48.838;2.402;2023-11-18T01:36:55;10.83;87.10
65854;DHT22;52627;48.838;2.402;2023-11-18T01:39:23;10.82;87.10
65854;DHT22;52627;48.838;2.402;2023-11-18T01:41:52;10.81;87.09
65854;DHT22;52627;48.838;2.402;2023-11-18T01:44:20;10.80;87.09
65854;DHT22;52627;48.838;2.402;2023-11-18T01:46:47;10.80;87.10
65854;DHT22;52627;48.838;2.402;2023-11-18T01:49:15;10.80;87.09
65854;DHT22;52627;48.838;2.402;2023-11-18T01:51:45;10.78;87.09
65854;DHT22;52627;48.838;2.402;2023-11-18T01:54:14;10.77;87.09
65854;DHT22;52627;48.838;2.402;2023-11-18T01:56:47;10.77;87.02
65854;DHT22;52627;48.838;2.402;2023-11-18T01:59:16;10.75;87.01
65854;DHT22;52627;48.838;2.402;2023-11-18T02:01:50;10.75;87.04
65854;DHT22;52627;48.838;2.402;2023-11-18T02:04:21;10.74;87.04
65854;DHT22;52627;48.838;2.402;2023-11-18T02:06:49;10.75;87.10
65854;DHT22;52627;48.838;2.402;2023-11-18T02:09:18;10.74;87.10
65854;DHT22;52627;48.838;2.402;2023-11-18T02:12:08;10.74;87.10
65854;DHT22;52627;48.838;2.402;2023-11-18T02:14:55;10.74;87.10
65854;DHT22;52627;48.838;2.402;2023-11-18T02:17:25;10.74;87.11
65854;DHT22;52627;48.838;2.402;2023-11-18T02:19:53;10.74;87.13
65854;DHT22;52627;48.838;2.402;2023-11-18T02:22:24;10.73;87.10
65854;DHT22;52627;48.838;2.402;2023-11-18T02:24:52;10.72;87.07
65854;DHT22;52627;48.838;2.402;2023-11-18T02:27:20;10.72;87.11
65854;DHT22;52627;48.838;2.402;2023-11-18T02:29:49;10.73;87.10
65854;DHT22;52627;48.838;2.402;2023-11-18T02:32:20;10.72;87.10
65854;DHT22;52627;48.838;2.402;2023-11-18T02:37:44;10.75;87.19
65854;DHT22;52627;48.838;2.402;2023-11-18T02:40:16;10.76;87.20
65854;DHT22;52627;48.838;2.402;2023-11-18T02:42:58;10.78;87.21
65854;DHT22;52627;48.838;2.402;2023-11-18T02:45:28;10.79;87.26
65854;DHT22;52627;48.838;2.402;2023-11-18T02:47:55;10.78;87.20
65854;DHT22;52627;48.838;2.402;2023-11-18T02:50:25;10.78;87.18
65854;DHT22;52627;48.838;2.402;2023-11-18T02:52:54;10.78;87.15
65854;DHT22;52627;48.838;2.402;2023-11-18T02:55:22;10.78;87.10
65854;DHT22;52627;48.838;2.402;2023-11-18T02:57:51;10.78;87.16
65854;DHT22;52627;48.838;2.402;2023-11-18T03:00:19;10.80;87.18
65854;DHT22;52627;48.838;2.402;2023-11-18T03:02:49;10.81;87.18
65854;DHT22;52627;48.838;2.402;2023-11-18T03:05:22;10.81;87.19
65854;DHT22;52627;48.838;2.402;2023-11-18T03:07:50;10.81;87.15
65854;DHT22;52627;48.838;2.402;2023-11-18T03:10:19;10.81;87.13
65854;DHT22;52627;48.838;2.402;2023-11-18T03:12:49;10.82;87.13
65854;DHT22;52627;48.838;2.402;2023-11-18T03:15:21;10.81;87.10
65854;DHT22;52627;48.838;2.402;2023-11-18T03:17:50;10.80;87.11
65854;DHT22;52627;48.838;2.402;2023-11-18T03:20:19;10.80;87.10
65854;DHT22;52627;48.838;2.402;2023-11-18T03:22:50;10.80;87.10
65854;DHT22;52627;48.838;2.402;2023-11-18T03:25:19;10.79;87.09
65854;DHT22;52627;48.838;2.402;2023-11-18T03:27:49;10.78;87.09
65854;DHT22;52627;48.838;2.402;2023-11-18T03:30:17;10.78;87.09
65854;DHT22;52627;48.838;2.402;2023-11-18T03:32:44;10.78;87.10
65854;DHT22;52627;48.838;2.402;2023-11-18T03:35:12;10.79;87.10
65854;DHT22;52627;48.838;2.402;2023-11-18T03:37:41;10.80;87.16
65854;DHT22;52627;48.838;2.402;2023-11-18T03:40:11;10.79;87.10
65854;DHT22;52627;48.838;2.402;2023-11-18T03:42:41;10.78;87.10
65854;DHT22;52627;48.838;2.402;2023-11-18T03:45:09;10.79;87.10
65854;DHT22;52627;48.838;2.402;2023-11-18T03:47:37;10.77;87.02
65854;DHT22;52627;48.838;2.402;2023-11-18T03:50:05;10.77;87.03
65854;DHT22;52627;48.838;2.402;2023-11-18T03:52:36;10.77;87.02
65854;DHT22;52627;48.838;2.402;2023-11-18T03:55:05;10.75;87.02
65854;DHT22;52627;48.838;2.402;2023-11-18T03:57:34;10.77;87.04
65854;DHT22;52627;48.838;2.402;2023-11-18T04:00:02;10.77;87.02
65854;DHT22;52627;48.838;2.402;2023-11-18T04:02:31;10.77;87.02
65854;DHT22;52627;48.838;2.402;2023-11-18T04:04:58;10.76;86.99
65854;DHT22;52627;48.838;2.402;2023-11-18T04:07:26;10.75;86.98
65854;DHT22;52627;48.838;2.402;2023-11-18T04:09:53;10.75;86.93
65854;DHT22;52627;48.838;2.402;2023-11-18T04:12:21;10.75;86.98
65854;DHT22;52627;48.838;2.402;2023-11-18T04:14:48;10.75;86.95
65854;DHT22;52627;48.838;2.402;2023-11-18T04:17:16;10.74;86.91
65854;DHT22;52627;48.838;2.402;2023-11-18T04:19:43;10.72;86.88
65854;DHT22;52627;48.838;2.402;2023-11-18T04:22:11;10.71;86.82
65854;DHT22;52627;48.838;2.402;2023-11-18T04:24:38;10.69;86.82
65854;DHT22;52627;48.838;2.402;2023-11-18T04:27:06;10.71;86.82
65854;DHT22;52627;48.838;2.402;2023-11-18T04:29:33;10.70;86.80
65854;DHT22;52627;48.838;2.402;2023-11-18T04:32:03;10.70;86.80
65854;DHT22;52627;48.838;2.402;2023-11-18T04:34:31;10.71;86.83
65854;DHT22;52627;48.838;2.402;2023-11-18T04:37:00;10.73;86.84
65854;DHT22;52627;48.838;2.402;2023-11-18T04:39:27;10.72;86.84
65854;DHT22;52627;48.838;2.402;2023-11-18T04:41:57;10.73;86.81
65854;DHT22;52627;48.838;2.402;2023-11-18T04:44:24;10.74;86.80
65854;DHT22;52627;48.838;2.402;2023-11-18T04:46:52;10.74;86.79
65854;DHT22;52627;48.838;2.402;2023-11-18T04:49:20;10.75;86.75
65854;DHT22;52627;48.838;2.402;2023-11-18T04:51:47;10.74;86.71
65854;DHT22;52627;48.838;2.402;2023-11-18T04:54:15;10.74;86.70
65854;DHT22;52627;48.838;2.402;2023-11-18T04:56:42;10.75;86.72
65854;DHT22;52627;48.838;2.402;2023-11-18T04:59:11;10.76;86.74
65854;DHT22;52627;48.838;2.402;2023-11-18T05:01:39;10.77;86.70
65854;DHT22;52627;48.838;2.402;2023-11-18T05:04:06;10.77;86.72
65854;DHT22;52627;48.838;2.402;2023-11-18T05:06:35;10.79;86.78
65854;DHT22;52627;48.838;2.402;2023-11-18T05:09:02;10.81;86.80
65854;DHT22;52627;48.838;2.402;2023-11-18T05:11:34;10.80;86.80
65854;DHT22;52627;48.838;2.402;2023-11-18T05:14:03;10.81;86.80
65854;DHT22;52627;48.838;2.402;2023-11-18T05:16:31;10.80;86.79
65854;DHT22;52627;48.838;2.402;2023-11-18T05:18:58;10.79;86.78
65854;DHT22;52627;48.838;2.402;2023-11-18T05:21:26;10.78;86.80
65854;DHT22;52627;48.838;2.402;2023-11-18T05:23:53;10.78;86.84
65854;DHT22;52627;48.838;2.402;2023-11-18T05:26:20;10.77;86.87
65854;DHT22;52627;48.838;2.402;2023-11-18T05:28:48;10.77;86.90
65854;DHT22;52627;48.838;2.402;2023-11-18T05:31:17;10.77;86.90
65854;DHT22;52627;48.838;2.402;2023-11-18T05:33:46;10.77;86.94
65854;DHT22;52627;48.838;2.402;2023-11-18T05:36:19;10.75;86.93
65854;DHT22;52627;48.838;2.402;2023-11-18T05:38:54;10.73;86.99
65854;DHT22;52627;48.838;2.402;2023-11-18T05:41:22;10.73;87.00
65854;DHT22;52627;48.838;2.402;2023-11-18T05:43:55;10.73;87.04
65854;DHT22;52627;48.838;2.402;2023-11-18T05:46:25;10.72;87.09
65854;DHT22;52627;48.838;2.402;2023-11-18T05:49:01;10.73;87.10
65854;DHT22;52627;48.838;2.402;2023-11-18T05:51:34;10.72;87.18
65854;DHT22;52627;48.838;2.402;2023-11-18T05:54:02;10.71;87.27
65854;DHT22;52627;48.838;2.402;2023-11-18T05:56:30;10.71;87.30
65854;DHT22;52627;48.838;2.402;2023-11-18T05:58:59;10.72;87.30
65854;DHT22;52627;48.838;2.402;2023-11-18T06:01:26;10.72;87.30
65854;DHT22;52627;48.838;2.402;2023-11-18T06:03:56;10.71;87.33
65854;DHT22;52627;48.838;2.402;2023-11-18T06:06:24;10.70;87.40
65854;DHT22;52627;48.838;2.402;2023-11-18T06:08:53;10.69;87.40
65854;DHT22;52627;48.838;2.402;2023-11-18T06:11:21;10.67;87.43
65854;DHT22;52627;48.838;2.402;2023-11-18T06:13:51;10.66;87.51
65854;DHT22;52627;48.838;2.402;2023-11-18T06:16:20;10.65;87.60
65854;DHT22;52627;48.838;2.402;2023-11-18T06:18:50;10.62;87.61
65854;DHT22;52627;48.838;2.402;2023-11-18T06:21:21;10.60;87.69
65854;DHT22;52627;48.838;2.402;2023-11-18T06:23:57;10.56;87.71
65854;DHT22;52627;48.838;2.402;2023-11-18T06:26:26;10.54;87.75
65854;DHT22;52627;48.838;2.402;2023-11-18T06:28:55;10.51;87.80
65854;DHT22;52627;48.838;2.402;2023-11-18T06:31:23;10.49;87.80
65854;DHT22;52627;48.838;2.402;2023-11-18T06:33:51;10.48;87.82
65854;DHT22;52627;48.838;2.402;2023-11-18T06:36:20;10.46;87.88
65854;DHT22;52627;48.838;2.402;2023-11-18T06:38:50;10.46;87.90
65854;DHT22;52627;48.838;2.402;2023-11-18T06:41:19;10.45;87.90
65854;DHT22;52627;48.838;2.402;2023-11-18T06:43:51;10.44;87.92
65854;DHT22;52627;48.838;2.402;2023-11-18T06:46:19;10.44;87.97
65854;DHT22;52627;48.838;2.402;2023-11-18T06:48:52;10.44;88.00
65854;DHT22;52627;48.838;2.402;2023-11-18T06:51:21;10.44;88.00
65854;DHT22;52627;48.838;2.402;2023-11-18T06:53:51;10.45;88.04
65854;DHT22;52627;48.838;2.402;2023-11-18T06:56:22;10.44;88.07
65854;DHT22;52627;48.838;2.402;2023-11-18T06:58:51;10.43;88.08
65854;DHT22;52627;48.838;2.402;2023-11-18T07:01:20;10.42;88.10
65854;DHT22;52627;48.838;2.402;2023-11-18T07:03:48;10.41;88.10
65854;DHT22;52627;48.838;2.402;2023-11-18T07:06:20;10.41;88.14
65854;DHT22;52627;48.838;2.402;2023-11-18T07:08:50;10.40;88.17
65854;DHT22;52627;48.838;2.402;2023-11-18T07:11:19;10.39;88.20
65854;DHT22;52627;48.838;2.402;2023-11-18T07:13:49;10.39;88.22
65854;DHT22;52627;48.838;2.402;2023-11-18T07:16:24;10.39;88.28
65854;DHT22;52627;48.838;2.402;2023-11-18T07:18:52;10.39;88.31
65854;DHT22;52627;48.838;2.402;2023-11-18T07:21:20;10.36;88.30
65854;DHT22;52627;48.838;2.402;2023-11-18T07:23:47;10.35;88.35
65854;DHT22;52627;48.838;2.402;2023-11-18T07:26:15;10.34;88.40
65854;DHT22;52627;48.838;2.402;2023-11-18T07:28:43;10.34;88.44
65854;DHT22;52627;48.838;2.402;2023-11-18T07:31:12;10.35;88.50
65854;DHT22;52627;48.838;2.402;2023-11-18T07:33:39;10.35;88.50
65854;DHT22;52627;48.838;2.402;2023-11-18T07:36:10;10.34;88.52
65854;DHT22;52627;48.838;2.402;2023-11-18T07:38:38;10.35;88.59
65854;DHT22;52627;48.838;2.402;2023-11-18T07:41:07;10.34;88.59
65854;DHT22;52627;48.838;2.402;2023-11-18T07:43:36;10.34;88.61
65854;DHT22;52627;48.838;2.402;2023-11-18T07:46:04;10.36;88.67
65854;DHT22;52627;48.838;2.402;2023-11-18T07:48:35;10.37;88.70
65854;DHT22;52627;48.838;2.402;2023-11-18T07:51:03;10.39;88.76
65854;DHT22;52627;48.838;2.402;2023-11-18T07:53:31;10.40;88.80
65854;DHT22;52627;48.838;2.402;2023-11-18T07:55:59;10.41;88.80
65854;DHT22;52627;48.838;2.402;2023-11-18T07:58:29;10.43;88.82
65854;DHT22;52627;48.838;2.402;2023-11-18T08:00:59;10.44;88.89
65854;DHT22;52627;48.838;2.402;2023-11-18T08:03:27;10.47;88.91
65854;DHT22;52627;48.838;2.402;2023-11-18T08:06:06;10.47;88.91
65854;DHT22;52627;48.838;2.402;2023-11-18T08:08:34;10.48;88.97
65854;DHT22;52627;48.838;2.402;2023-11-18T08:11:05;10.49;89.00
65854;DHT22;52627;48.838;2.402;2023-11-18T08:13:33;10.50;89.00
65854;DHT22;52627;48.838;2.402;2023-11-18T08:16:01;10.51;89.03
65854;DHT22;52627;48.838;2.402;2023-11-18T08:18:29;10.52;89.09
65854;DHT22;52627;48.838;2.402;2023-11-18T08:20:58;10.52;89.10
65854;DHT22;52627;48.838;2.402;2023-11-18T08:23:27;10.52;89.10
65854;DHT22;52627;48.838;2.402;2023-11-18T08:25:58;10.51;89.13
65854;DHT22;52627;48.838;2.402;2023-11-18T08:28:26;10.49;89.14
65854;DHT22;52627;48.838;2.402;2023-11-18T08:30:53;10.48;89.16
65854;DHT22;52627;48.838;2.402;2023-11-18T08:33:21;10.46;89.17
65854;DHT22;52627;48.838;2.402;2023-11-18T08:35:53;10.45;89.20
65854;DHT22;52627;48.838;2.402;2023-11-18T08:38:20;10.44;89.20
65854;DHT22;52627;48.838;2.402;2023-11-18T08:40:48;10.45;89.28
65854;DHT22;52627;48.838;2.402;2023-11-18T08:43:18;10.47;89.30
65854;DHT22;52627;48.838;2.402;2023-11-18T08:45:45;10.49;89.31
65854;DHT22;52627;48.838;2.402;2023-11-18T08:48:14;10.50;89.35
65854;DHT22;52627;48.838;2.402;2023-11-18T08:50:43;10.51;89.39
65854;DHT22;52627;48.838;2.402;2023-11-18T08:53:12;10.52;89.40
65854;DHT22;52627;48.838;2.402;2023-11-18T08:55:39;10.53;89.40
65854;DHT22;52627;48.838;2.402;2023-11-18T08:58:11;10.55;89.43
65854;DHT22;52627;48.838;2.402;2023-11-18T09:01:01;10.57;89.45
65854;DHT22;52627;48.838;2.402;2023-11-18T09:03:34;10.58;89.49
65854;DHT22;52627;48.838;2.402;2023-11-18T09:06:03;10.59;89.48
65854;DHT22;52627;48.838;2.402;2023-11-18T09:08:35;10.61;89.50
65854;DHT22;52627;48.838;2.402;2023-11-18T09:11:11;10.63;89.52
65854;DHT22;52627;48.838;2.402;2023-11-18T09:13:43;10.64;89.55
65854;DHT22;52627;48.838;2.402;2023-11-18T09:16:12;10.66;89.60
65854;DHT22;52627;48.838;2.402;2023-11-18T09:18:43;10.67;89.58
65854;DHT22;52627;48.838;2.402;2023-11-18T09:21:14;10.68;89.59
65854;DHT22;52627;48.838;2.402;2023-11-18T09:23:43;10.69;89.60
65854;DHT22;52627;48.838;2.402;2023-11-18T09:26:12;10.70;89.60
65854;DHT22;52627;48.838;2.402;2023-11-18T09:28:40;10.70;89.62
65854;DHT22;52627;48.838;2.402;2023-11-18T09:31:07;10.69;89.69
65854;DHT22;52627;48.838;2.402;2023-11-18T09:33:40;10.69;89.69
65854;DHT22;52627;48.838;2.402;2023-11-18T09:36:19;10.71;89.70
65854;DHT22;52627;48.838;2.402;2023-11-18T09:38:48;10.71;89.74
65854;DHT22;52627;48.838;2.402;2023-11-18T09:41:22;10.72;89.78
65854;DHT22;52627;48.838;2.402;2023-11-18T09:43:53;10.72;89.79
65854;DHT22;52627;48.838;2.402;2023-11-18T09:46:28;10.74;89.81
65854;DHT22;52627;48.838;2.402;2023-11-18T09:51:55;10.75;89.90
65854;DHT22;52627;48.838;2.402;2023-11-18T09:57:23;10.77;89.97
65854;DHT22;52627;48.838;2.402;2023-11-18T10:00:01;10.79;90.00
65854;DHT22;52627;48.838;2.402;2023-11-18T10:02:54;10.80;90.00
65854;DHT22;52627;48.838;2.402;2023-11-18T10:05:24;10.81;90.00
65854;DHT22;52627;48.838;2.402;2023-11-18T10:07:56;10.82;90.00
65854;DHT22;52627;48.838;2.402;2023-11-18T10:10:27;10.82;90.00
65854;DHT22;52627;48.838;2.402;2023-11-18T10:13:04;10.83;90.01
65854;DHT22;52627;48.838;2.402;2023-11-18T10:15:46;10.86;90.05
65854;DHT22;52627;48.838;2.402;2023-11-18T10:18:18;10.87;90.07
65854;DHT22;52627;48.838;2.402;2023-11-18T10:20:52;10.89;90.08
65854;DHT22;52627;48.838;2.402;2023-11-18T10:23:24;10.93;90.10
65854;DHT22;52627;48.838;2.402;2023-11-18T10:25:56;10.95;90.11
65854;DHT22;52627;48.838;2.402;2023-11-18T10:28:28;10.95;90.10
65854;DHT22;52627;48.838;2.402;2023-11-18T10:30:57;10.97;90.10
65854;DHT22;52627;48.838;2.402;2023-11-18T10:33:28;10.99;90.10
65854;DHT22;52627;48.838;2.402;2023-11-18T10:36:21;10.99;90.10
65854;DHT22;52627;48.838;2.402;2023-11-18T10:38:51;11.00;90.10
65854;DHT22;52627;48.838;2.402;2023-11-18T10:41:23;11.02;90.13
65854;DHT22;52627;48.838;2.402;2023-11-18T10:44:06;11.03;90.16
65854;DHT22;52627;48.838;2.402;2023-11-18T10:46:50;11.06;90.18
65854;DHT22;52627;48.838;2.402;2023-11-18T10:49:20;11.07;90.20
65854;DHT22;52627;48.838;2.402;2023-11-18T10:51:50;11.10;90.20
65854;DHT22;52627;48.838;2.402;2023-11-18T10:54:18;11.12;90.20
65854;DHT22;52627;48.838;2.402;2023-11-18T10:56:47;11.14;90.21
65854;DHT22;52627;48.838;2.402;2023-11-18T10:59:16;11.15;90.20
65854;DHT22;52627;48.838;2.402;2023-11-18T11:01:45;11.17;90.25
65854;DHT22;52627;48.838;2.402;2023-11-18T11:04:17;11.19;90.29
65854;DHT22;52627;48.838;2.402;2023-11-18T11:06:48;11.24;90.31
65854;DHT22;52627;48.838;2.402;2023-11-18T11:09:21;11.26;90.30
65854;DHT22;52627;48.838;2.402;2023-11-18T11:11:57;11.27;90.30
65854;DHT22;52627;48.838;2.402;2023-11-18T11:14:35;11.30;90.30
65854;DHT22;52627;48.838;2.402;2023-11-18T11:17:12;11.33;90.31
65854;DHT22;52627;48.838;2.402;2023-11-18T11:20:02;11.36;90.30
65854;DHT22;52627;48.838;2.402;2023-11-18T11:23:10;11.39;90.30
65854;DHT22;52627;48.838;2.402;2023-11-18T11:25:58;11.42;90.29
65854;DHT22;52627;48.838;2.402;2023-11-18T11:31:38;11.49;90.30
65854;DHT22;52627;48.838;2.402;2023-11-18T11:34:26;11.51;90.30
65854;DHT22;52627;48.838;2.402;2023-11-18T11:36:58;11.54;90.29
65854;DHT22;52627;48.838;2.402;2023-11-18T11:39:28;11.56;90.30
65854;DHT22;52627;48.838;2.402;2023-11-18T11:41:57;11.58;90.30
65854;DHT22;52627;48.838;2.402;2023-11-18T11:44:26;11.61;90.29
65854;DHT22;52627;48.838;2.402;2023-11-18T11:46:59;11.63;90.29
65854;DHT22;52627;48.838;2.402;2023-11-18T11:49:36;11.65;90.30
65854;DHT22;52627;48.838;2.402;2023-11-18T11:52:43;11.68;90.30
65854;DHT22;52627;48.838;2.402;2023-11-18T11:55:19;11.72;90.30
65854;DHT22;52627;48.838;2.402;2023-11-18T11:58:31;11.74;90.35
65854;DHT22;52627;48.838;2.402;2023-11-18T12:01:01;11.77;90.34
65854;DHT22;52627;48.838;2.402;2023-11-18T12:03:42;11.81;90.37
65854;DHT22;52627;48.838;2.402;2023-11-18T12:06:12;11.83;90.34
65854;DHT22;52627;48.838;2.402;2023-11-18T12:08:43;11.87;90.39
65854;DHT22;52627;48.838;2.402;2023-11-18T12:11:11;11.90;90.34
65854;DHT22;52627;48.838;2.402;2023-11-18T12:13:40;11.93;90.30
65854;DHT22;52627;48.838;2.402;2023-11-18T12:16:07;11.95;90.34
65854;DHT22;52627;48.838;2.402;2023-11-18T12:18:37;11.98;90.32
65854;DHT22;52627;48.838;2.402;2023-11-18T12:21:05;12.01;90.30
65854;DHT22;52627;48.838;2.402;2023-11-18T12:23:32;12.02;90.30
65854;DHT22;52627;48.838;2.402;2023-11-18T12:26:02;12.05;90.32
65854;DHT22;52627;48.838;2.402;2023-11-18T12:29:29;12.07;90.30
65854;DHT22;52627;48.838;2.402;2023-11-18T12:32:01;12.09;90.27
65854;DHT22;52627;48.838;2.402;2023-11-18T12:37:27;12.11;90.26
65854;DHT22;52627;48.838;2.402;2023-11-18T12:40:44;12.13;90.22
65854;DHT22;52627;48.838;2.402;2023-11-18T12:43:43;12.13;90.21
65854;DHT22;52627;48.838;2.402;2023-11-18T12:46:32;12.14;90.24
65854;DHT22;52627;48.838;2.402;2023-11-18T12:49:17;12.17;90.26
65854;DHT22;52627;48.838;2.402;2023-11-18T12:51:52;12.19;90.29
65854;DHT22;52627;48.838;2.402;2023-11-18T12:54:23;12.20;90.30
65854;DHT22;52627;48.838;2.402;2023-11-18T12:56:54;12.22;90.38
65854;DHT22;52627;48.838;2.402;2023-11-18T12:59:22;12.23;90.39
65854;DHT22;52627;48.838;2.402;2023-11-18T13:01:51;12.26;90.40
65854;DHT22;52627;48.838;2.402;2023-11-18T13:04:24;12.27;90.40
65854;DHT22;52627;48.838;2.402;2023-11-18T13:06:54;12.28;90.41
65854;DHT22;52627;48.838;2.402;2023-11-18T13:09:22;12.29;90.44
65854;DHT22;52627;48.838;2.402;2023-11-18T13:11:57;12.30;90.43
65854;DHT22;52627;48.838;2.402;2023-11-18T13:14:31;12.31;90.44
65854;DHT22;52627;48.838;2.402;2023-11-18T13:17:10;12.32;90.45
65854;DHT22;52627;48.838;2.402;2023-11-18T13:19:45;12.34;90.47
65854;DHT22;52627;48.838;2.402;2023-11-18T13:22:15;12.33;90.47
65854;DHT22;52627;48.838;2.402;2023-11-18T13:24:46;12.35;90.50
65854;DHT22;52627;48.838;2.402;2023-11-18T13:27:14;12.36;90.50
65854;DHT22;52627;48.838;2.402;2023-11-18T13:29:44;12.38;90.50
65854;DHT22;52627;48.838;2.402;2023-11-18T13:32:16;12.39;90.50
65854;DHT22;52627;48.838;2.402;2023-11-18T13:34:44;12.40;90.50
65854;DHT22;52627;48.838;2.402;2023-11-18T13:37:13;12.40;90.50
65854;DHT22;52627;48.838;2.402;2023-11-18T13:39:44;12.40;90.51
65854;DHT22;52627;48.838;2.402;2023-11-18T13:44:48;12.40;90.50
65854;DHT22;52627;48.838;2.402;2023-11-18T13:47:17;12.40;90.53
65854;DHT22;52627;48.838;2.402;2023-11-18T13:49:48;12.41;90.53
65854;DHT22;52627;48.838;2.402;2023-11-18T13:52:17;12.42;90.58
65854;DHT22;52627;48.838;2.402;2023-11-18T13:54:46;12.43;90.59
65854;DHT22;52627;48.838;2.402;2023-11-18T13:57:15;12.45;90.59
65854;DHT22;52627;48.838;2.402;2023-11-18T13:59:43;12.46;90.59
65854;DHT22;52627;48.838;2.402;2023-11-18T14:02:12;12.47;90.60
65854;DHT22;52627;48.838;2.402;2023-11-18T14:04:40;12.48;90.60
65854;DHT22;52627;48.838;2.402;2023-11-18T14:07:13;12.50;90.60
65854;DHT22;52627;48.838;2.402;2023-11-18T14:09:44;12.51;90.60
65854;DHT22;52627;48.838;2.402;2023-11-18T14:12:13;12.52;90.66
65854;DHT22;52627;48.838;2.402;2023-11-18T14:14:41;12.52;90.66
65854;DHT22;52627;48.838;2.402;2023-11-18T14:17:08;12.53;90.66
65854;DHT22;52627;48.838;2.402;2023-11-18T14:19:39;12.53;90.69
65854;DHT22;52627;48.838;2.402;2023-11-18T14:22:09;12.53;90.70
65854;DHT22;52627;48.838;2.402;2023-11-18T14:24:37;12.52;90.72
65854;DHT22;52627;48.838;2.402;2023-11-18T14:27:05;12.53;90.80
65854;DHT22;52627;48.838;2.402;2023-11-18T14:29:35;12.52;90.86
65854;DHT22;52627;48.838;2.402;2023-11-18T14:32:03;12.51;90.91
65854;DHT22;52627;48.838;2.402;2023-11-18T14:34:33;12.51;91.02
65854;DHT22;52627;48.838;2.402;2023-11-18T14:37:00;12.50;91.11
65854;DHT22;52627;48.838;2.402;2023-11-18T14:39:28;12.48;91.17
65854;DHT22;52627;48.838;2.402;2023-11-18T14:41:56;12.46;91.26
65854;DHT22;52627;48.838;2.402;2023-11-18T14:44:24;12.46;91.33
65854;DHT22;52627;48.838;2.402;2023-11-18T14:46:52;12.47;91.40
65854;DHT22;52627;48.838;2.402;2023-11-18T14:49:22;12.47;91.44
65854;DHT22;52627;48.838;2.402;2023-11-18T14:51:49;12.46;91.48
65854;DHT22;52627;48.838;2.402;2023-11-18T14:54:17;12.46;91.51
65854;DHT22;52627;48.838;2.402;2023-11-18T14:56:45;12.45;91.56
65854;DHT22;52627;48.838;2.402;2023-11-18T14:59:16;12.45;91.61
65854;DHT22;52627;48.838;2.402;2023-11-18T15:01:43;12.44;91.65
65854;DHT22;52627;48.838;2.402;2023-11-18T15:04:16;12.44;91.70
65854;DHT22;52627;48.838;2.402;2023-11-18T15:06:43;12.43;91.75
65854;DHT22;52627;48.838;2.402;2023-11-18T15:09:12;12.42;91.79
65854;DHT22;52627;48.838;2.402;2023-11-18T15:11:39;12.42;91.80
65854;DHT22;52627;48.838;2.402;2023-11-18T15:14:07;12.43;91.87
65854;DHT22;52627;48.838;2.402;2023-11-18T15:16:34;12.44;91.89
65854;DHT22;52627;48.838;2.402;2023-11-18T15:19:02;12.44;91.91
65854;DHT22;52627;48.838;2.402;2023-11-18T15:21:31;12.44;91.94
65854;DHT22;52627;48.838;2.402;2023-11-18T15:23:58;12.45;91.99
65854;DHT22;52627;48.838;2.402;2023-11-18T15:26:30;12.44;92.00
65854;DHT22;52627;48.838;2.402;2023-11-18T15:28:59;12.46;92.03
65854;DHT22;52627;48.838;2.402;2023-11-18T15:31:29;12.47;92.10
65854;DHT22;52627;48.838;2.402;2023-11-18T15:33:56;12.47;92.10
65854;DHT22;52627;48.838;2.402;2023-11-18T15:36:24;12.48;92.12
65854;DHT22;52627;48.838;2.402;2023-11-18T15:38:52;12.49;92.18
65854;DHT22;52627;48.838;2.402;2023-11-18T15:41:20;12.50;92.20
65854;DHT22;52627;48.838;2.402;2023-11-18T15:43:47;12.51;92.23
65854;DHT22;52627;48.838;2.402;2023-11-18T15:46:15;12.53;92.23
65854;DHT22;52627;48.838;2.402;2023-11-18T15:48:43;12.53;92.29
65854;DHT22;52627;48.838;2.402;2023-11-18T15:51:10;12.55;92.30
65854;DHT22;52627;48.838;2.402;2023-11-18T15:53:40;12.56;92.31
65854;DHT22;52627;48.838;2.402;2023-11-18T15:56:07;12.57;92.36
65854;DHT22;52627;48.838;2.402;2023-11-18T15:58:36;12.58;92.39
65854;DHT22;52627;48.838;2.402;2023-11-18T16:01:04;12.60;92.40
65854;DHT22;52627;48.838;2.402;2023-11-18T16:03:33;12.60;92.40
65854;DHT22;52627;48.838;2.402;2023-11-18T16:06:01;12.61;92.41
65854;DHT22;52627;48.838;2.402;2023-11-18T16:08:28;12.63;92.41